createdAt,value
2023-03-13T00:00:03.293Z,0
2023-03-13T00:05:03.148Z,0
2023-03-13T00:10:02.807Z,0
2023-03-13T00:15:02.612Z,0
2023-03-13T00:20:02.369Z,0
2023-03-13T00:25:03.324Z,0
2023-03-13T00:30:03.089Z,0
2023-03-13T00:35:02.681Z,0
2023-03-13T00:40:02.411Z,0
2023-03-13T00:45:03.190Z,0
2023-03-13T00:50:02.782Z,0
2023-03-13T00:55:03.173Z,0
2023-03-13T01:00:03.234Z,0
2023-03-13T01:05:03.012Z,0
2023-03-13T01:10:02.733Z,0
2023-03-13T01:15:02.627Z,0
2023-03-13T01:20:02.341Z,0
2023-03-13T01:25:03.080Z,0
2023-03-13T01:30:02.877Z,0
2023-03-13T01:35:02.869Z,0
2023-03-13T01:40:02.863Z,0
2023-03-13T01:45:02.848Z,0
2023-03-13T01:50:02.639Z,0
2023-03-13T01:55:03.657Z,0
2023-03-13T02:00:02.447Z,0
2023-03-13T02:05:03.099Z,0
2023-03-13T02:10:03.088Z,0
2023-03-13T02:15:03.408Z,0
2023-03-13T02:20:02.894Z,0
2023-03-13T02:25:02.641Z,0
2023-03-13T02:30:02.624Z,0
2023-03-13T02:35:03.227Z,0
2023-03-13T02:40:02.929Z,0
2023-03-13T02:45:02.622Z,0
2023-03-13T02:50:03.342Z,0
2023-03-13T02:55:02.735Z,0
2023-03-13T03:00:03.281Z,0
2023-03-13T03:05:03.118Z,0
2023-03-13T03:10:02.817Z,0
2023-03-13T03:15:02.676Z,0
2023-03-13T03:20:02.440Z,0
2023-03-13T03:25:02.394Z,0
2023-03-13T03:30:03.570Z,0
2023-03-13T03:35:03.035Z,0
2023-03-13T03:40:02.764Z,0
2023-03-13T03:45:02.524Z,0
2023-03-13T03:50:03.246Z,0
2023-03-13T03:55:03.455Z,0
2023-03-13T04:00:03.267Z,0
2023-03-13T04:05:03.116Z,0
2023-03-13T04:10:03.186Z,0
2023-03-13T04:15:02.849Z,0
2023-03-13T04:20:02.566Z,0
2023-03-13T04:25:03.290Z,0
2023-03-13T04:30:02.524Z,0
2023-03-13T04:35:03.549Z,0
2023-03-13T04:40:03.362Z,0
2023-03-13T04:45:02.961Z,0
2023-03-13T04:55:03.334Z,0.34
2023-03-13T05:00:02.416Z,1.02
2023-03-13T05:05:02.820Z,2.49
2023-03-13T05:10:02.404Z,4.75
2023-03-13T05:15:03.204Z,5
2023-03-13T05:20:02.949Z,13.33
2023-03-13T05:25:02.674Z,33.33
2023-03-13T05:30:02.816Z,56.67
2023-03-13T05:35:02.630Z,110
2023-03-13T05:40:02.833Z,170
2023-03-13T05:45:02.646Z,161.67
2023-03-13T05:50:02.397Z,201.67
2023-03-13T05:55:04.031Z,270
2023-03-13T06:00:02.953Z,361.67
2023-03-13T06:05:02.931Z,350
2023-03-13T06:10:02.567Z,311.67
2023-03-13T06:15:03.357Z,336.67
2023-03-13T06:20:03.160Z,426.67
2023-03-13T06:25:03.230Z,643.33
2023-03-13T06:30:02.961Z,826.67
2023-03-13T06:35:02.554Z,1070
2023-03-13T06:40:02.747Z,1098.33
2023-03-13T06:45:02.608Z,731.67
2023-03-13T06:50:02.462Z,623.33
2023-03-13T06:55:04.159Z,926.67
2023-03-13T07:00:03.115Z,861.67
2023-03-13T07:05:02.952Z,1396.67
2023-03-13T07:10:02.797Z,1176.67
2023-03-13T07:15:02.527Z,1806.67
2023-03-13T07:20:03.441Z,1740
2023-03-13T07:25:03.051Z,2565
2023-03-13T07:30:02.928Z,1931.67
2023-03-13T07:35:02.997Z,2690
2023-03-13T07:40:02.415Z,3046.67
2023-03-13T07:45:03.148Z,2275
2023-03-13T07:50:03.159Z,1880
2023-03-13T07:55:03.175Z,713.33
2023-03-13T08:00:03.365Z,1058.33
2023-03-13T08:05:03.158Z,1401.67
2023-03-13T08:10:02.834Z,1706.67
2023-03-13T08:15:02.630Z,1991.67
2023-03-13T08:20:03.455Z,2688.33
2023-03-13T08:25:03.115Z,1901.67
2023-03-13T08:30:02.815Z,2170
2023-03-13T08:35:02.882Z,2010
2023-03-13T08:40:02.747Z,2485
2023-03-13T08:45:02.819Z,4160
2023-03-13T08:50:02.592Z,4920
2023-03-13T08:55:03.232Z,3760
2023-03-13T09:00:03.236Z,2140
2023-03-13T09:05:03.061Z,2350
2023-03-13T09:10:03.055Z,2408.33
2023-03-13T09:15:02.924Z,2560
2023-03-13T09:20:02.977Z,1956.67
2023-03-13T09:25:02.759Z,1810
2023-03-13T09:30:02.455Z,1756.67
2023-03-13T09:35:03.170Z,1966.67
2023-03-13T09:40:02.971Z,2225
2023-03-13T09:45:02.909Z,2731.67
2023-03-13T09:50:02.909Z,3628.33
2023-03-13T09:55:03.387Z,3821.67
2023-03-13T10:00:02.689Z,4468.33
2023-03-13T10:05:03.311Z,4920
2023-03-13T10:10:03.058Z,3130
2023-03-13T10:15:02.943Z,2708.33
2023-03-13T10:20:02.731Z,3386.67
2023-03-13T10:25:02.414Z,5111.67
2023-03-13T10:30:03.314Z,3510
2023-03-13T10:35:02.962Z,1843.33
2023-03-13T10:40:03.236Z,2258.33
2023-03-13T10:45:02.635Z,2946.67
2023-03-13T10:50:02.444Z,4431.67
2023-03-13T10:55:03.773Z,5850
2023-03-13T11:00:04.466Z,9151.67
2023-03-13T11:05:02.698Z,12968.33
2023-03-13T11:10:02.493Z,9918.33
2023-03-13T11:15:03.344Z,11943.33
2023-03-13T11:20:03.014Z,10468.33
2023-03-13T11:25:02.784Z,33753.33
2023-03-13T11:30:02.646Z,9181.67
2023-03-13T11:35:03.160Z,29263.33
2023-03-13T11:40:03.070Z,29666.67
2023-03-13T11:45:03.018Z,13128.33
2023-03-13T11:50:03.297Z,30293.33
2023-03-13T11:55:02.985Z,41226.67
2023-03-13T12:00:02.622Z,9021.67
2023-03-13T12:05:02.529Z,8301.67
2023-03-13T12:10:03.226Z,6786.67
2023-03-13T12:15:02.467Z,8486.67
2023-03-13T12:20:02.396Z,10073.33
2023-03-13T12:25:06.786Z,9358.33
2023-03-13T12:30:02.873Z,8581.67
2023-03-13T12:35:04.449Z,8746.67
2023-03-13T12:40:02.586Z,6415
2023-03-13T12:45:03.337Z,2658.33
2023-03-13T12:50:03.038Z,5153.33
2023-03-13T12:55:03.623Z,5146.67
2023-03-13T13:00:02.727Z,3908.33
2023-03-13T13:05:03.415Z,3295
2023-03-13T13:10:02.454Z,3543.33
2023-03-13T13:15:03.234Z,7078.33
2023-03-13T13:20:03.481Z,4300
2023-03-13T13:25:02.791Z,6871.67
2023-03-13T13:30:02.586Z,5556.67
2023-03-13T13:35:03.312Z,5166.67
2023-03-13T13:40:03.487Z,5783.33
2023-03-13T13:45:03.175Z,6115
2023-03-13T13:50:02.842Z,3615
2023-03-13T13:55:03.363Z,4868.33
2023-03-13T14:00:02.760Z,3630
2023-03-13T14:05:03.387Z,3200
2023-03-13T14:10:02.455Z,2563.33
2023-03-13T14:15:03.395Z,2783.33
2023-03-13T14:20:03.020Z,2563.33
2023-03-13T14:25:02.801Z,6065
2023-03-13T14:30:02.568Z,6400
2023-03-13T14:35:02.418Z,4076.67
2023-03-13T14:40:02.398Z,3828.33
2023-03-13T14:45:03.302Z,3018.33
2023-03-13T14:50:03.001Z,3265
2023-03-13T14:55:03.264Z,3703.33
2023-03-13T15:00:03.605Z,4868.33
2023-03-13T15:05:03.264Z,5263.33
2023-03-13T15:10:03.316Z,2675
2023-03-13T15:15:03.011Z,6748.33
2023-03-13T15:20:02.941Z,5050
2023-03-13T15:25:07.831Z,3916.67
2023-03-13T15:30:03.063Z,1606.67
2023-03-13T15:35:02.790Z,1273.33
2023-03-13T15:40:02.627Z,2811.67
2023-03-13T15:45:02.507Z,4063.33
2023-03-13T15:50:03.165Z,2681.67
2023-03-13T15:55:03.465Z,1620
2023-03-13T16:00:02.837Z,1070
2023-03-13T16:05:02.653Z,890
2023-03-13T16:10:02.469Z,1116.67
2023-03-13T16:15:02.620Z,1231.67
2023-03-13T16:20:03.557Z,1160
2023-03-13T16:25:03.001Z,698.33
2023-03-13T16:30:02.771Z,443.33
2023-03-13T16:35:02.579Z,306.67
2023-03-13T16:40:03.506Z,236.67
2023-03-13T16:45:03.127Z,273.33
2023-03-13T16:50:03.015Z,276.67
2023-03-13T16:55:03.304Z,201.67
2023-03-13T17:00:02.697Z,165
2023-03-13T17:05:03.254Z,96.67
2023-03-13T17:10:03.140Z,53.33
2023-03-13T17:15:02.830Z,21.67
2023-03-13T17:20:03.169Z,11.67
2023-03-13T17:25:02.954Z,10.19
2023-03-13T17:30:02.693Z,4.53
2023-03-13T17:35:02.840Z,1.25
2023-03-13T17:40:02.427Z,0.45
2023-03-13T17:45:03.228Z,0
2023-03-13T17:50:02.953Z,0
2023-03-13T17:55:02.966Z,0
2023-03-13T18:00:03.346Z,0
2023-03-13T18:05:03.090Z,0
2023-03-13T18:10:02.845Z,0
2023-03-13T18:15:02.712Z,0
2023-03-13T18:20:02.442Z,0
2023-03-13T18:25:03.240Z,0
2023-03-13T18:30:03.105Z,0
2023-03-13T18:35:02.780Z,0
2023-03-13T18:40:02.568Z,0
2023-03-13T18:45:03.297Z,0
2023-03-13T18:50:03.287Z,0
2023-03-13T18:55:03.940Z,0
2023-03-13T19:00:03.070Z,0
2023-03-13T19:05:03.002Z,0
2023-03-13T19:10:03.029Z,0
2023-03-13T19:15:02.508Z,0
2023-03-13T19:20:03.258Z,0
2023-03-13T19:25:03.106Z,0
2023-03-13T19:30:03.004Z,0
2023-03-13T19:35:02.662Z,0
2023-03-13T19:40:02.392Z,0
2023-03-13T19:45:03.458Z,0
2023-03-13T19:50:03.121Z,0
2023-03-13T19:55:05.757Z,0
2023-03-13T20:00:02.571Z,0
2023-03-13T20:05:03.278Z,0
2023-03-13T20:10:03.202Z,0
2023-03-13T20:15:02.968Z,0
2023-03-13T20:20:02.665Z,0
2023-03-13T20:25:02.407Z,0
2023-03-13T20:30:03.102Z,0
2023-03-13T20:35:02.831Z,0
2023-03-13T20:40:02.570Z,0
2023-03-13T20:45:03.311Z,0
2023-03-13T20:50:03.012Z,0
2023-03-13T20:55:03.309Z,0
2023-03-13T21:00:03.081Z,0
2023-03-13T21:05:02.802Z,0
2023-03-13T21:10:02.602Z,0
2023-03-13T21:15:06.199Z,0
2023-03-13T21:20:03.301Z,0
2023-03-13T21:25:02.989Z,0
2023-03-13T21:30:02.809Z,0
2023-03-13T21:35:02.733Z,0
2023-03-13T21:40:02.530Z,0
2023-03-13T21:45:02.477Z,0
2023-03-13T21:50:03.303Z,0
2023-03-13T21:55:03.482Z,0
2023-03-13T22:00:02.776Z,0
2023-03-13T22:05:02.523Z,0
2023-03-13T22:10:02.438Z,0
2023-03-13T22:15:03.303Z,0
2023-03-13T22:20:03.167Z,0
2023-03-13T22:25:02.909Z,0
2023-03-13T22:30:02.811Z,0
2023-03-13T22:35:02.970Z,0
2023-03-13T22:40:02.506Z,0
2023-03-13T22:45:02.775Z,0
2023-03-13T22:50:02.494Z,0
2023-03-13T22:55:03.893Z,0
2023-03-13T23:00:03.097Z,0
2023-03-13T23:05:02.852Z,0
2023-03-13T23:10:03.264Z,0
2023-03-13T23:15:03.053Z,0
2023-03-13T23:20:02.856Z,0
2023-03-13T23:25:02.559Z,0
2023-03-13T23:30:02.472Z,0
2023-03-13T23:35:02.424Z,0
2023-03-13T23:40:03.206Z,0
2023-03-13T23:45:03.241Z,0
2023-03-13T23:50:02.748Z,0
2023-03-13T23:55:03.130Z,0
